sensor_id;sensor_type;location;lat;lon;timestamp;temperature;humidity
51589;DHT22;37671;53.258;6.460;2022-07-25T05:05:26;21.00;99.90
51589;DHT22;37671;53.258;6.460;2022-07-25T05:07:56;21.00;99.90
51589;DHT22;37671;53.258;6.460;2022-07-25T05:10:21;21.00;99.90
51589;DHT22;37671;53.258;6.460;2022-07-25T05:12:47;21.00;99.90
51589;DHT22;37671;53.258;6.460;2022-07-25T05:15:13;21.00;99.90
51589;DHT22;37671;53.258;6.460;2022-07-25T05:17:38;20.90;99.90
51589;DHT22;37671;53.258;6.460;2022-07-25T05:20:04;21.10;99.90
51589;DHT22;37671;53.258;6.460;2022-07-25T05:22:30;21.00;99.90
51589;DHT22;37671;53.258;6.460;2022-07-25T05:24:55;21.10;99.90
51589;DHT22;37671;53.258;6.460;2022-07-25T05:27:21;21.10;99.90
51589;DHT22;37671;53.258;6.460;2022-07-25T05:29:46;21.00;99.90
51589;DHT22;37671;53.258;6.460;2022-07-25T05:32:12;21.00;99.90
51589;DHT22;37671;53.258;6.460;2022-07-25T05:34:37;21.10;99.90
51589;DHT22;37671;53.258;6.460;2022-07-25T05:37:03;21.20;99.90
51589;DHT22;37671;53.258;6.460;2022-07-25T05:39:28;21.00;99.90
51589;DHT22;37671;53.258;6.460;2022-07-25T05:41:54;21.10;99.90
51589;DHT22;37671;53.258;6.460;2022-07-25T05:44:19;21.10;99.90
51589;DHT22;37671;53.258;6.460;2022-07-25T05:46:45;21.10;99.90
51589;DHT22;37671;53.258;6.460;2022-07-25T05:49:10;21.10;99.90
51589;DHT22;37671;53.258;6.460;2022-07-25T05:51:36;21.20;99.90
51589;DHT22;37671;53.258;6.460;2022-07-25T05:54:01;21.20;99.90
51589;DHT22;37671;53.258;6.460;2022-07-25T05:56:27;21.20;99.90
51589;DHT22;37671;53.258;6.460;2022-07-25T05:58:54;21.30;99.90
51589;DHT22;37671;53.258;6.460;2022-07-25T06:01:19;21.20;99.90
51589;DHT22;37671;53.258;6.460;2022-07-25T06:03:45;21.30;99.90
51589;DHT22;37671;53.258;6.460;2022-07-25T06:06:10;21.40;99.90
51589;DHT22;37671;53.258;6.460;2022-07-25T06:08:37;21.50;99.90
51589;DHT22;37671;53.258;6.460;2022-07-25T06:11:03;21.50;99.90
51589;DHT22;37671;53.258;6.460;2022-07-25T06:13:29;21.50;99.90
51589;DHT22;37671;53.258;6.460;2022-07-25T06:15:55;21.60;99.90
51589;DHT22;37671;53.258;6.460;2022-07-25T06:18:20;21.70;99.90
51589;DHT22;37671;53.258;6.460;2022-07-25T06:20:46;21.80;99.90
51589;DHT22;37671;53.258;6.460;2022-07-25T06:23:13;21.90;99.90
51589;DHT22;37671;53.258;6.460;2022-07-25T06:25:38;21.90;99.90
51589;DHT22;37671;53.258;6.460;2022-07-25T06:28:04;21.90;99.90
51589;DHT22;37671;53.258;6.460;2022-07-25T06:30:29;21.90;99.90
51589;DHT22;37671;53.258;6.460;2022-07-25T06:32:55;22.00;99.90
51589;DHT22;37671;53.258;6.460;2022-07-25T06:35:20;22.10;99.90
51589;DHT22;37671;53.258;6.460;2022-07-25T06:37:46;22.20;99.90
51589;DHT22;37671;53.258;6.460;2022-07-25T06:40:12;22.40;99.90
51589;DHT22;37671;53.258;6.460;2022-07-25T06:42:38;22.60;99.90
51589;DHT22;37671;53.258;6.460;2022-07-25T06:45:04;22.50;99.90
51589;DHT22;37671;53.258;6.460;2022-07-25T06:47:30;22.50;99.90
51589;DHT22;37671;53.258;6.460;2022-07-25T06:49:55;22.40;99.90
51589;DHT22;37671;53.258;6.460;2022-07-25T06:52:21;22.40;99.90
51589;DHT22;37671;53.258;6.460;2022-07-25T06:54:46;22.30;99.90
51589;DHT22;37671;53.258;6.460;2022-07-25T06:57:12;22.30;99.90
51589;DHT22;37671;53.258;6.460;2022-07-25T06:59:40;22.30;99.90
51589;DHT22;37671;53.258;6.460;2022-07-25T07:02:06;22.40;99.90
51589;DHT22;37671;53.258;6.460;2022-07-25T07:04:32;23.10;99.90
51589;DHT22;37671;53.258;6.460;2022-07-25T07:06:57;22.60;99.90
51589;DHT22;37671;53.258;6.460;2022-07-25T07:09:23;22.80;99.90
51589;DHT22;37671;53.258;6.460;2022-07-25T07:11:48;22.80;99.90
51589;DHT22;37671;53.258;6.460;2022-07-25T07:14:14;22.90;99.90
51589;DHT22;37671;53.258;6.460;2022-07-25T07:16:39;22.80;99.90
51589;DHT22;37671;53.258;6.460;2022-07-25T07:19:06;22.80;99.90
51589;DHT22;37671;53.258;6.460;2022-07-25T07:21:39;22.50;99.90
51589;DHT22;37671;53.258;6.460;2022-07-25T07:24:04;23.00;99.90
51589;DHT22;37671;53.258;6.460;2022-07-25T07:26:30;22.90;99.90
51589;DHT22;37671;53.258;6.460;2022-07-25T07:28:56;22.90;99.90
51589;DHT22;37671;53.258;6.460;2022-07-25T07:31:21;23.00;99.90
51589;DHT22;37671;53.258;6.460;2022-07-25T07:33:47;23.20;99.90
51589;DHT22;37671;53.258;6.460;2022-07-25T07:36:12;23.20;99.90
51589;DHT22;37671;53.258;6.460;2022-07-25T07:38:38;23.60;99.90
51589;DHT22;37671;53.258;6.460;2022-07-25T07:41:04;23.40;99.90
51589;DHT22;37671;53.258;6.460;2022-07-25T07:43:30;23.30;99.90
51589;DHT22;37671;53.258;6.460;2022-07-25T07:45:56;23.30;99.90
51589;DHT22;37671;53.258;6.460;2022-07-25T07:48:28;23.30;99.90
51589;DHT22;37671;53.258;6.460;2022-07-25T07:50:53;23.30;99.90
51589;DHT22;37671;53.258;6.460;2022-07-25T07:53:19;23.70;99.90
51589;DHT22;37671;53.258;6.460;2022-07-25T07:55:45;24.10;99.90
51589;DHT22;37671;53.258;6.460;2022-07-25T07:58:16;24.20;99.90
51589;DHT22;37671;53.258;6.460;2022-07-25T08:00:58;24.10;99.90
51589;DHT22;37671;53.258;6.460;2022-07-25T08:03:23;24.00;99.90
51589;DHT22;37671;53.258;6.460;2022-07-25T08:05:49;23.90;99.90
51589;DHT22;37671;53.258;6.460;2022-07-25T08:08:16;23.90;99.90
51589;DHT22;37671;53.258;6.460;2022-07-25T08:10:43;24.00;99.90
51589;DHT22;37671;53.258;6.460;2022-07-25T08:15:38;24.40;99.90
51589;DHT22;37671;53.258;6.460;2022-07-25T08:18:04;24.40;99.90
51589;DHT22;37671;53.258;6.460;2022-07-25T08:20:29;24.40;99.90
51589;DHT22;37671;53.258;6.460;2022-07-25T08:22:55;24.30;99.90
51589;DHT22;37671;53.258;6.460;2022-07-25T08:25:20;24.20;99.90
51589;DHT22;37671;53.258;6.460;2022-07-25T08:27:46;24.30;99.90
51589;DHT22;37671;53.258;6.460;2022-07-25T08:30:12;24.00;99.90
51589;DHT22;37671;53.258;6.460;2022-07-25T08:32:45;23.80;99.90
51589;DHT22;37671;53.258;6.460;2022-07-25T08:35:11;23.70;99.90
51589;DHT22;37671;53.258;6.460;2022-07-25T08:37:36;23.60;99.90
51589;DHT22;37671;53.258;6.460;2022-07-25T08:40:02;23.50;99.90
51589;DHT22;37671;53.258;6.460;2022-07-25T08:42:27;23.30;99.90
51589;DHT22;37671;53.258;6.460;2022-07-25T08:44:55;23.20;99.90
51589;DHT22;37671;53.258;6.460;2022-07-25T08:47:22;23.10;99.90
51589;DHT22;37671;53.258;6.460;2022-07-25T08:49:48;23.10;99.90
51589;DHT22;37671;53.258;6.460;2022-07-25T08:52:14;23.00;99.90
51589;DHT22;37671;53.258;6.460;2022-07-25T08:54:39;22.90;99.90
51589;DHT22;37671;53.258;6.460;2022-07-25T08:57:05;22.80;99.90
51589;DHT22;37671;53.258;6.460;2022-07-25T08:59:30;22.80;99.90
51589;DHT22;37671;53.258;6.460;2022-07-25T09:01:56;22.80;99.90
51589;DHT22;37671;53.258;6.460;2022-07-25T09:04:24;22.70;99.90
51589;DHT22;37671;53.258;6.460;2022-07-25T09:06:53;22.70;99.90
51589;DHT22;37671;53.258;6.460;2022-07-25T09:09:27;22.80;99.90
51589;DHT22;37671;53.258;6.460;2022-07-25T09:11:53;23.00;99.90
51589;DHT22;37671;53.258;6.460;2022-07-25T09:14:19;23.00;99.90
51589;DHT22;37671;53.258;6.460;2022-07-25T09:16:44;22.90;99.90
51589;DHT22;37671;53.258;6.460;2022-07-25T09:21:35;22.60;99.90
51589;DHT22;37671;53.258;6.460;2022-07-25T09:24:34;22.50;99.90
51589;DHT22;37671;53.258;6.460;2022-07-25T09:26:54;22.50;99.90
51589;DHT22;37671;53.258;6.460;2022-07-25T09:31:45;22.50;99.90
51589;DHT22;37671;53.258;6.460;2022-07-25T09:34:11;22.60;99.90
51589;DHT22;37671;53.258;6.460;2022-07-25T09:36:50;22.60;99.90
51589;DHT22;37671;53.258;6.460;2022-07-25T09:39:16;22.80;99.90
51589;DHT22;37671;53.258;6.460;2022-07-25T09:41:41;22.90;99.90
51589;DHT22;37671;53.258;6.460;2022-07-25T09:44:20;23.00;99.90
51589;DHT22;37671;53.258;6.460;2022-07-25T09:46:53;23.00;99.90
51589;DHT22;37671;53.258;6.460;2022-07-25T09:49:19;23.60;99.90
51589;DHT22;37671;53.258;6.460;2022-07-25T09:51:44;23.40;99.90
51589;DHT22;37671;53.258;6.460;2022-07-25T09:54:11;23.50;99.90
51589;DHT22;37671;53.258;6.460;2022-07-25T09:56:37;23.50;99.90
51589;DHT22;37671;53.258;6.460;2022-07-25T09:59:03;23.30;99.90
51589;DHT22;37671;53.258;6.460;2022-07-25T10:01:34;23.20;99.90
51589;DHT22;37671;53.258;6.460;2022-07-25T10:04:14;22.90;99.90
51589;DHT22;37671;53.258;6.460;2022-07-25T10:09:10;22.80;99.90
51589;DHT22;37671;53.258;6.460;2022-07-25T10:11:36;22.70;99.90
51589;DHT22;37671;53.258;6.460;2022-07-25T10:14:08;22.80;99.90
51589;DHT22;37671;53.258;6.460;2022-07-25T10:16:43;23.50;99.90
51589;DHT22;37671;53.258;6.460;2022-07-25T10:19:08;23.10;99.90
51589;DHT22;37671;53.258;6.460;2022-07-25T10:21:34;23.00;99.90
51589;DHT22;37671;53.258;6.460;2022-07-25T10:24:02;22.80;99.90
51589;DHT22;37671;53.258;6.460;2022-07-25T10:26:28;22.60;99.90
51589;DHT22;37671;53.258;6.460;2022-07-25T10:28:53;22.50;99.90
51589;DHT22;37671;53.258;6.460;2022-07-25T10:33:58;22.40;99.90
51589;DHT22;37671;53.258;6.460;2022-07-25T10:36:40;22.50;99.90
51589;DHT22;37671;53.258;6.460;2022-07-25T10:39:07;22.40;99.90
51589;DHT22;37671;53.258;6.460;2022-07-25T10:41:33;22.40;99.90
51589;DHT22;37671;53.258;6.460;2022-07-25T10:44:03;22.40;99.90
51589;DHT22;37671;53.258;6.460;2022-07-25T10:46:28;22.60;99.90
51589;DHT22;37671;53.258;6.460;2022-07-25T10:49:02;22.70;99.90
51589;DHT22;37671;53.258;6.460;2022-07-25T10:51:29;22.90;99.90
51589;DHT22;37671;53.258;6.460;2022-07-25T10:53:55;23.30;99.90
51589;DHT22;37671;53.258;6.460;2022-07-25T10:56:22;23.40;99.90
51589;DHT22;37671;53.258;6.460;2022-07-25T11:01:17;23.80;99.90
51589;DHT22;37671;53.258;6.460;2022-07-25T11:03:43;24.10;99.90
51589;DHT22;37671;53.258;6.460;2022-07-25T11:06:10;24.00;99.90
51589;DHT22;37671;53.258;6.460;2022-07-25T11:08:36;23.80;99.90
51589;DHT22;37671;53.258;6.460;2022-07-25T11:11:01;23.50;99.90
51589;DHT22;37671;53.258;6.460;2022-07-25T11:13:27;23.40;99.90
51589;DHT22;37671;53.258;6.460;2022-07-25T11:15:58;23.30;99.90
51589;DHT22;37671;53.258;6.460;2022-07-25T11:18:31;23.20;99.90
51589;DHT22;37671;53.258;6.460;2022-07-25T11:20:58;23.10;99.90
51589;DHT22;37671;53.258;6.460;2022-07-25T11:23:24;23.20;99.90
51589;DHT22;37671;53.258;6.460;2022-07-25T11:25:49;23.30;99.90
51589;DHT22;37671;53.258;6.460;2022-07-25T11:28:15;23.50;99.90
51589;DHT22;37671;53.258;6.460;2022-07-25T11:30:41;23.70;99.90
51589;DHT22;37671;53.258;6.460;2022-07-25T11:33:06;23.90;99.90
51589;DHT22;37671;53.258;6.460;2022-07-25T11:35:32;23.80;99.90
51589;DHT22;37671;53.258;6.460;2022-07-25T11:37:58;23.50;99.90
51589;DHT22;37671;53.258;6.460;2022-07-25T11:40:25;23.20;99.90
51589;DHT22;37671;53.258;6.460;2022-07-25T11:42:52;22.90;99.90
51589;DHT22;37671;53.258;6.460;2022-07-25T11:45:22;22.80;99.90
51589;DHT22;37671;53.258;6.460;2022-07-25T11:50:31;23.10;99.90
51589;DHT22;37671;53.258;6.460;2022-07-25T11:52:57;23.30;99.90
51589;DHT22;37671;53.258;6.460;2022-07-25T11:55:26;23.40;99.90
51589;DHT22;37671;53.258;6.460;2022-07-25T11:57:56;23.50;99.90
51589;DHT22;37671;53.258;6.460;2022-07-25T12:00:21;23.40;99.90
51589;DHT22;37671;53.258;6.460;2022-07-25T12:02:47;23.40;99.90
51589;DHT22;37671;53.258;6.460;2022-07-25T12:05:14;23.30;99.90
51589;DHT22;37671;53.258;6.460;2022-07-25T12:07:45;23.40;99.90
51589;DHT22;37671;53.258;6.460;2022-07-25T12:12:40;23.60;99.90
51589;DHT22;37671;53.258;6.460;2022-07-25T12:15:08;23.30;99.90
51589;DHT22;37671;53.258;6.460;2022-07-25T12:17:34;23.50;99.90
51589;DHT22;37671;53.258;6.460;2022-07-25T12:19:59;23.50;99.90
51589;DHT22;37671;53.258;6.460;2022-07-25T12:22:25;23.70;99.90
51589;DHT22;37671;53.258;6.460;2022-07-25T12:24:50;24.40;99.90
51589;DHT22;37671;53.258;6.460;2022-07-25T12:27:16;24.70;99.90
51589;DHT22;37671;53.258;6.460;2022-07-25T12:29:41;24.30;99.90
51589;DHT22;37671;53.258;6.460;2022-07-25T12:32:07;24.10;99.90
51589;DHT22;37671;53.258;6.460;2022-07-25T12:34:32;24.00;99.90
51589;DHT22;37671;53.258;6.460;2022-07-25T12:36:58;23.90;99.90
51589;DHT22;37671;53.258;6.460;2022-07-25T12:39:24;24.40;99.90
51589;DHT22;37671;53.258;6.460;2022-07-25T12:41:49;23.50;99.90
51589;DHT22;37671;53.258;6.460;2022-07-25T12:44:15;23.30;99.90
51589;DHT22;37671;53.258;6.460;2022-07-25T12:46:40;23.30;99.90
51589;DHT22;37671;53.258;6.460;2022-07-25T12:49:06;23.40;99.90
51589;DHT22;37671;53.258;6.460;2022-07-25T12:51:31;23.60;99.90
51589;DHT22;37671;53.258;6.460;2022-07-25T12:53:57;23.60;99.90
51589;DHT22;37671;53.258;6.460;2022-07-25T12:56:22;23.50;99.90
51589;DHT22;37671;53.258;6.460;2022-07-25T12:58:48;23.50;99.90
51589;DHT22;37671;53.258;6.460;2022-07-25T13:01:14;23.40;99.90
51589;DHT22;37671;53.258;6.460;2022-07-25T13:03:40;23.30;99.90
51589;DHT22;37671;53.258;6.460;2022-07-25T13:06:06;23.20;99.90
51589;DHT22;37671;53.258;6.460;2022-07-25T13:08:31;23.00;99.90
51589;DHT22;37671;53.258;6.460;2022-07-25T13:10:57;22.90;99.90
51589;DHT22;37671;53.258;6.460;2022-07-25T13:13:22;22.70;99.90
51589;DHT22;37671;53.258;6.460;2022-07-25T13:15:49;22.70;99.90
51589;DHT22;37671;53.258;6.460;2022-07-25T13:18:14;22.80;99.90
51589;DHT22;37671;53.258;6.460;2022-07-25T13:20:40;23.00;99.90
51589;DHT22;37671;53.258;6.460;2022-07-25T13:23:05;23.30;99.90
51589;DHT22;37671;53.258;6.460;2022-07-25T13:25:31;23.80;99.90
51589;DHT22;37671;53.258;6.460;2022-07-25T13:27:58;23.50;99.90
51589;DHT22;37671;53.258;6.460;2022-07-25T13:30:23;23.50;99.90
51589;DHT22;37671;53.258;6.460;2022-07-25T13:32:49;23.70;99.90
51589;DHT22;37671;53.258;6.460;2022-07-25T13:35:14;23.50;99.90
51589;DHT22;37671;53.258;6.460;2022-07-25T13:37:40;24.20;99.90
51589;DHT22;37671;53.258;6.460;2022-07-25T13:40:05;24.00;99.90
51589;DHT22;37671;53.258;6.460;2022-07-25T13:42:31;23.80;99.90
51589;DHT22;37671;53.258;6.460;2022-07-25T13:44:57;23.60;99.90
51589;DHT22;37671;53.258;6.460;2022-07-25T13:47:22;23.50;99.90
51589;DHT22;37671;53.258;6.460;2022-07-25T13:49:51;23.30;99.90
51589;DHT22;37671;53.258;6.460;2022-07-25T13:52:16;23.20;99.90
51589;DHT22;37671;53.258;6.460;2022-07-25T13:54:42;23.20;99.90
51589;DHT22;37671;53.258;6.460;2022-07-25T13:57:08;23.20;99.90
51589;DHT22;37671;53.258;6.460;2022-07-25T13:59:33;23.20;99.90
51589;DHT22;37671;53.258;6.460;2022-07-25T14:02:00;23.30;99.90
51589;DHT22;37671;53.258;6.460;2022-07-25T14:04:26;23.50;99.90
51589;DHT22;37671;53.258;6.460;2022-07-25T14:06:51;23.80;99.90
51589;DHT22;37671;53.258;6.460;2022-07-25T14:09:18;24.10;99.90
51589;DHT22;37671;53.258;6.460;2022-07-25T14:11:44;24.00;99.90
51589;DHT22;37671;53.258;6.460;2022-07-25T14:14:11;23.70;99.90
51589;DHT22;37671;53.258;6.460;2022-07-25T14:16:36;23.90;99.90
51589;DHT22;37671;53.258;6.460;2022-07-25T14:19:02;23.80;99.90
51589;DHT22;37671;53.258;6.460;2022-07-25T14:21:28;23.90;99.90
51589;DHT22;37671;53.258;6.460;2022-07-25T14:23:53;24.20;99.90
51589;DHT22;37671;53.258;6.460;2022-07-25T14:26:19;24.10;99.90
51589;DHT22;37671;53.258;6.460;2022-07-25T14:28:44;23.90;99.90
51589;DHT22;37671;53.258;6.460;2022-07-25T14:31:10;24.00;99.90
51589;DHT22;37671;53.258;6.460;2022-07-25T14:33:36;23.90;99.90
51589;DHT22;37671;53.258;6.460;2022-07-25T14:36:05;23.80;99.90
51589;DHT22;37671;53.258;6.460;2022-07-25T14:38:31;24.20;99.90
51589;DHT22;37671;53.258;6.460;2022-07-25T14:40:56;24.70;99.90
51589;DHT22;37671;53.258;6.460;2022-07-25T14:43:22;23.70;99.90
51589;DHT22;37671;53.258;6.460;2022-07-25T14:45:47;23.60;99.90
51589;DHT22;37671;53.258;6.460;2022-07-25T14:48:13;23.50;99.90
51589;DHT22;37671;53.258;6.460;2022-07-25T14:50:38;23.40;99.90
51589;DHT22;37671;53.258;6.460;2022-07-25T14:53:04;23.20;99.90
51589;DHT22;37671;53.258;6.460;2022-07-25T14:55:31;23.30;99.90
51589;DHT22;37671;53.258;6.460;2022-07-25T14:57:56;23.50;99.90
51589;DHT22;37671;53.258;6.460;2022-07-25T15:00:27;23.50;99.90
51589;DHT22;37671;53.258;6.460;2022-07-25T15:02:54;23.50;99.90
51589;DHT22;37671;53.258;6.460;2022-07-25T15:05:19;23.50;99.90
51589;DHT22;37671;53.258;6.460;2022-07-25T15:07:45;23.80;99.90
51589;DHT22;37671;53.258;6.460;2022-07-25T15:10:11;23.60;99.90
51589;DHT22;37671;53.258;6.460;2022-07-25T15:12:38;23.40;99.90
51589;DHT22;37671;53.258;6.460;2022-07-25T15:15:03;23.20;99.90
51589;DHT22;37671;53.258;6.460;2022-07-25T15:17:29;23.20;99.90
51589;DHT22;37671;53.258;6.460;2022-07-25T15:19:56;23.10;99.90
51589;DHT22;37671;53.258;6.460;2022-07-25T15:22:21;22.90;99.90
51589;DHT22;37671;53.258;6.460;2022-07-25T15:24:47;22.80;99.90
51589;DHT22;37671;53.258;6.460;2022-07-25T15:27:13;22.90;99.90
51589;DHT22;37671;53.258;6.460;2022-07-25T15:29:38;22.90;99.90
51589;DHT22;37671;53.258;6.460;2022-07-25T15:32:04;23.70;99.90
51589;DHT22;37671;53.258;6.460;2022-07-25T15:34:30;23.80;99.90
51589;DHT22;37671;53.258;6.460;2022-07-25T15:36:56;23.50;99.90
51589;DHT22;37671;53.258;6.460;2022-07-25T15:39:22;23.30;99.90
51589;DHT22;37671;53.258;6.460;2022-07-25T15:41:48;23.30;99.90
51589;DHT22;37671;53.258;6.460;2022-07-25T15:44:14;23.30;99.90
51589;DHT22;37671;53.258;6.460;2022-07-25T15:46:41;23.10;99.90
51589;DHT22;37671;53.258;6.460;2022-07-25T15:49:07;22.90;99.90
51589;DHT22;37671;53.258;6.460;2022-07-25T15:51:32;22.90;99.90
51589;DHT22;37671;53.258;6.460;2022-07-25T15:53:59;22.90;99.90
51589;DHT22;37671;53.258;6.460;2022-07-25T15:56:25;22.90;99.90
51589;DHT22;37671;53.258;6.460;2022-07-25T15:58:50;22.90;99.90
51589;DHT22;37671;53.258;6.460;2022-07-25T16:01:16;22.90;99.90
51589;DHT22;37671;53.258;6.460;2022-07-25T16:03:42;22.80;99.90
51589;DHT22;37671;53.258;6.460;2022-07-25T16:06:08;22.60;99.90
51589;DHT22;37671;53.258;6.460;2022-07-25T16:08:34;22.50;99.90
51589;DHT22;37671;53.258;6.460;2022-07-25T16:11:00;23.10;99.90
51589;DHT22;37671;53.258;6.460;2022-07-25T16:13:29;22.40;99.90
51589;DHT22;37671;53.258;6.460;2022-07-25T16:15:54;22.30;99.90
51589;DHT22;37671;53.258;6.460;2022-07-25T16:18:20;22.30;99.90
51589;DHT22;37671;53.258;6.460;2022-07-25T16:20:47;22.70;99.90
51589;DHT22;37671;53.258;6.460;2022-07-25T16:23:13;23.30;99.90
51589;DHT22;37671;53.258;6.460;2022-07-25T16:25:39;22.40;99.90
51589;DHT22;37671;53.258;6.460;2022-07-25T16:28:05;22.30;99.90
51589;DHT22;37671;53.258;6.460;2022-07-25T16:30:31;22.20;99.90
51589;DHT22;37671;53.258;6.460;2022-07-25T16:32:56;22.20;99.90
51589;DHT22;37671;53.258;6.460;2022-07-25T16:35:22;22.10;99.90
51589;DHT22;37671;53.258;6.460;2022-07-25T16:37:47;22.00;99.90
51589;DHT22;37671;53.258;6.460;2022-07-25T16:40:13;22.60;99.90
51589;DHT22;37671;53.258;6.460;2022-07-25T16:42:40;22.00;99.90
51589;DHT22;37671;53.258;6.460;2022-07-25T16:45:06;22.00;99.90
51589;DHT22;37671;53.258;6.460;2022-07-25T16:47:32;22.00;99.90
51589;DHT22;37671;53.258;6.460;2022-07-25T16:49:57;22.10;99.90
51589;DHT22;37671;53.258;6.460;2022-07-25T16:52:23;22.00;99.90
51589;DHT22;37671;53.258;6.460;2022-07-25T16:54:51;21.90;99.90
51589;DHT22;37671;53.258;6.460;2022-07-25T16:57:20;21.90;99.90
51589;DHT22;37671;53.258;6.460;2022-07-25T16:59:45;21.80;99.90
51589;DHT22;37671;53.258;6.460;2022-07-25T17:02:11;21.80;99.90
51589;DHT22;37671;53.258;6.460;2022-07-25T17:04:37;22.40;99.90
51589;DHT22;37671;53.258;6.460;2022-07-25T17:07:03;21.60;99.90
51589;DHT22;37671;53.258;6.460;2022-07-25T17:09:29;21.50;99.90
51589;DHT22;37671;53.258;6.460;2022-07-25T17:11:55;21.50;99.90
51589;DHT22;37671;53.258;6.460;2022-07-25T17:14:20;21.40;99.90
51589;DHT22;37671;53.258;6.460;2022-07-25T17:16:46;21.30;99.90
51589;DHT22;37671;53.258;6.460;2022-07-25T17:19:11;21.30;99.90
51589;DHT22;37671;53.258;6.460;2022-07-25T17:21:37;21.20;99.90
51589;DHT22;37671;53.258;6.460;2022-07-25T17:24:02;21.20;99.90
51589;DHT22;37671;53.258;6.460;2022-07-25T17:26:28;21.20;99.90
51589;DHT22;37671;53.258;6.460;2022-07-25T17:28:56;20.70;99.90
51589;DHT22;37671;53.258;6.460;2022-07-25T17:31:23;21.10;99.90
51589;DHT22;37671;53.258;6.460;2022-07-25T17:33:49;21.10;99.90
51589;DHT22;37671;53.258;6.460;2022-07-25T17:36:15;21.00;99.90
51589;DHT22;37671;53.258;6.460;2022-07-25T17:38:40;21.00;99.90
51589;DHT22;37671;53.258;6.460;2022-07-25T17:41:06;21.10;99.90
51589;DHT22;37671;53.258;6.460;2022-07-25T17:43:34;21.00;99.90
51589;DHT22;37671;53.258;6.460;2022-07-25T17:46:00;21.10;99.90
51589;DHT22;37671;53.258;6.460;2022-07-25T17:48:26;21.00;99.90
51589;DHT22;37671;53.258;6.460;2022-07-25T17:50:51;21.00;99.90
51589;DHT22;37671;53.258;6.460;2022-07-25T17:53:17;21.00;99.90
51589;DHT22;37671;53.258;6.460;2022-07-25T17:55:43;20.90;99.90
51589;DHT22;37671;53.258;6.460;2022-07-25T17:58:09;20.90;99.90
51589;DHT22;37671;53.258;6.460;2022-07-25T18:00:35;21.60;99.90
51589;DHT22;37671;53.258;6.460;2022-07-25T18:03:02;20.90;99.90
51589;DHT22;37671;53.258;6.460;2022-07-25T18:05:28;20.80;99.90
51589;DHT22;37671;53.258;6.460;2022-07-25T18:07:53;20.90;99.90
51589;DHT22;37671;53.258;6.460;2022-07-25T18:10:19;20.90;99.90
51589;DHT22;37671;53.258;6.460;2022-07-25T18:12:47;21.70;99.90
51589;DHT22;37671;53.258;6.460;2022-07-25T18:15:13;20.80;99.90
51589;DHT22;37671;53.258;6.460;2022-07-25T18:17:44;20.60;99.90
51589;DHT22;37671;53.258;6.460;2022-07-25T18:20:10;20.80;99.90
51589;DHT22;37671;53.258;6.460;2022-07-25T18:22:38;20.80;99.90
51589;DHT22;37671;53.258;6.460;2022-07-25T18:25:09;20.80;99.90
51589;DHT22;37671;53.258;6.460;2022-07-25T18:27:36;20.70;99.90
51589;DHT22;37671;53.258;6.460;2022-07-25T18:30:03;21.50;99.90
51589;DHT22;37671;53.258;6.460;2022-07-25T18:32:32;20.70;99.90
51589;DHT22;37671;53.258;6.460;2022-07-25T18:34:58;20.70;99.90
51589;DHT22;37671;53.258;6.460;2022-07-25T18:37:24;21.20;99.90
51589;DHT22;37671;53.258;6.460;2022-07-25T18:39:49;20.70;99.90
51589;DHT22;37671;53.258;6.460;2022-07-25T18:42:15;20.70;99.90
51589;DHT22;37671;53.258;6.460;2022-07-25T18:44:43;20.60;99.90
51589;DHT22;37671;53.258;6.460;2022-07-25T18:47:09;20.50;99.90
51589;DHT22;37671;53.258;6.460;2022-07-25T18:49:36;20.50;99.90
51589;DHT22;37671;53.258;6.460;2022-07-25T18:52:01;20.40;99.90
51589;DHT22;37671;53.258;6.460;2022-07-25T18:54:27;20.30;99.90
51589;DHT22;37671;53.258;6.460;2022-07-25T18:56:52;20.50;99.90
51589;DHT22;37671;53.258;6.460;2022-07-25T18:59:18;20.40;99.90
51589;DHT22;37671;53.258;6.460;2022-07-25T19:01:43;20.80;99.90
51589;DHT22;37671;53.258;6.460;2022-07-25T19:04:09;20.40;99.90
51589;DHT22;37671;53.258;6.460;2022-07-25T19:06:35;20.40;99.90
51589;DHT22;37671;53.258;6.460;2022-07-25T19:09:01;20.30;99.90
51589;DHT22;37671;53.258;6.460;2022-07-25T19:11:27;20.30;99.90
51589;DHT22;37671;53.258;6.460;2022-07-25T19:13:53;20.30;99.90
51589;DHT22;37671;53.258;6.460;2022-07-25T19:16:18;20.40;99.90
51589;DHT22;37671;53.258;6.460;2022-07-25T19:18:44;21.10;99.90
51589;DHT22;37671;53.258;6.460;2022-07-25T19:21:10;20.30;99.90
51589;DHT22;37671;53.258;6.460;2022-07-25T19:23:36;20.20;99.90
51589;DHT22;37671;53.258;6.460;2022-07-25T19:26:01;20.20;99.90
51589;DHT22;37671;53.258;6.460;2022-07-25T19:28:28;20.20;99.90
51589;DHT22;37671;53.258;6.460;2022-07-25T19:30:54;20.20;99.90
51589;DHT22;37671;53.258;6.460;2022-07-25T19:33:20;20.20;99.90
51589;DHT22;37671;53.258;6.460;2022-07-25T19:35:46;20.90;99.90
51589;DHT22;37671;53.258;6.460;2022-07-25T19:38:12;20.10;99.90
51589;DHT22;37671;53.258;6.460;2022-07-25T19:40:37;20.10;99.90
51589;DHT22;37671;53.258;6.460;2022-07-25T19:43:03;20.10;99.90
51589;DHT22;37671;53.258;6.460;2022-07-25T19:45:29;20.80;99.90
51589;DHT22;37671;53.258;6.460;2022-07-25T19:47:57;20.00;99.90
51589;DHT22;37671;53.258;6.460;2022-07-25T19:50:25;20.00;99.90
51589;DHT22;37671;53.258;6.460;2022-07-25T19:52:50;20.00;99.90
51589;DHT22;37671;53.258;6.460;2022-07-25T19:55:16;20.00;99.90
51589;DHT22;37671;53.258;6.460;2022-07-25T19:57:41;19.90;99.90
51589;DHT22;37671;53.258;6.460;2022-07-25T20:00:08;20.10;99.90
51589;DHT22;37671;53.258;6.460;2022-07-25T20:02:35;19.80;99.90
51589;DHT22;37671;53.258;6.460;2022-07-25T20:05:03;19.80;99.90
51589;DHT22;37671;53.258;6.460;2022-07-25T20:07:28;19.80;99.90
51589;DHT22;37671;53.258;6.460;2022-07-25T20:09:55;19.80;99.90
51589;DHT22;37671;53.258;6.460;2022-07-25T20:12:20;19.80;99.90
51589;DHT22;37671;53.258;6.460;2022-07-25T20:14:46;19.70;99.90
51589;DHT22;37671;53.258;6.460;2022-07-25T20:17:11;19.80;99.90
51589;DHT22;37671;53.258;6.460;2022-07-25T20:19:37;19.70;99.90
51589;DHT22;37671;53.258;6.460;2022-07-25T20:22:03;19.90;99.90
51589;DHT22;37671;53.258;6.460;2022-07-25T20:24:29;19.80;99.90
51589;DHT22;37671;53.258;6.460;2022-07-25T20:26:54;19.70;99.90
51589;DHT22;37671;53.258;6.460;2022-07-25T20:29:20;19.70;99.90
51589;DHT22;37671;53.258;6.460;2022-07-25T20:31:46;19.60;99.90
51589;DHT22;37671;53.258;6.460;2022-07-25T20:34:12;19.50;99.90
51589;DHT22;37671;53.258;6.460;2022-07-25T20:36:37;19.50;99.90
51589;DHT22;37671;53.258;6.460;2022-07-25T20:39:03;19.40;99.90
51589;DHT22;37671;53.258;6.460;2022-07-25T20:41:30;19.30;99.90
51589;DHT22;37671;53.258;6.460;2022-07-25T20:43:58;19.30;99.90
51589;DHT22;37671;53.258;6.460;2022-07-25T20:46:25;19.30;99.90
51589;DHT22;37671;53.258;6.460;2022-07-25T20:48:53;19.30;99.90